Time;durP1;ratioP1;P1;durP2;ratioP2;P2;SDS_P1;SDS_P2;PMS_P1;PMS_P2;Temp;Humidity;BMP_temperature;BMP_pressure;BME280_temperature;BME280_humidity;BME280_pressure;Samples;Min_cycle;Max_cycle;Signal;HPM_P1;HPM_P2
2023/04/12 00:00:59;;;;;;;5.80;2.13;;;11.50;69.70;;;;;;5050569;28;20028;-67
2023/04/12 00:03:26;;;;;;;9.10;2.50;;;11.50;70.10;;;;;;5048885;28;20455;-66
2023/04/12 00:05:53;;;;;;;7.13;2.47;;;11.50;70.40;;;;;;5047258;28;20668;-67
2023/04/12 00:08:25;;;;;;;9.50;2.40;;;11.50;70.70;;;;;;5050296;28;20021;-66
2023/04/12 00:10:51;;;;;;;7.95;2.72;;;11.40;71.20;;;;;;5050330;28;20483;-69
2023/04/12 00:13:17;;;;;;;6.35;2.00;;;11.40;71.60;;;;;;5050588;28;20390;-68
2023/04/12 00:15:43;;;;;;;7.30;2.38;;;11.30;73.00;;;;;;5049863;28;20027;-67
2023/04/12 00:18:08;;;;;;;7.30;2.40;;;11.30;73.20;;;;;;5050187;28;20029;-68
2023/04/12 00:20:34;;;;;;;9.13;2.20;;;11.20;73.90;;;;;;5032485;28;20033;-66
2023/04/12 00:22:59;;;;;;;6.78;2.35;;;11.10;74.40;;;;;;5047230;28;20044;-68
2023/04/12 00:25:25;;;;;;;9.45;2.60;;;11.00;75.20;;;;;;5049608;28;20044;-70
2023/04/12 00:27:51;;;;;;;5.90;2.20;;;11.00;76.00;;;;;;5050198;28;20543;-70
2023/04/12 00:30:16;;;;;;;7.93;2.45;;;10.90;76.30;;;;;;5049792;28;20075;-67
2023/04/12 00:32:42;;;;;;;5.10;2.40;;;10.90;77.00;;;;;;5048561;28;20391;-67
2023/04/12 00:35:08;;;;;;;6.28;2.03;;;10.90;77.30;;;;;;5050032;28;20467;-67
2023/04/12 00:37:35;;;;;;;7.45;2.40;;;10.80;77.70;;;;;;5049649;28;20021;-67
2023/04/12 00:40:01;;;;;;;7.15;2.38;;;10.80;77.90;;;;;;5049176;28;20025;-68
2023/04/12 00:42:27;;;;;;;12.27;5.35;;;10.80;78.10;;;;;;5049464;28;20163;-67
2023/04/12 00:44:52;;;;;;;8.48;3.08;;;10.80;78.30;;;;;;5050197;28;20976;-67
2023/04/12 00:47:18;;;;;;;5.97;2.40;;;10.80;78.90;;;;;;5052377;28;20541;-67
2023/04/12 00:49:44;;;;;;;7.40;2.42;;;10.70;79.90;;;;;;5035322;28;20035;-67
2023/04/12 00:52:14;;;;;;;7.32;2.50;;;10.60;80.40;;;;;;5049806;28;20036;-70
2023/04/12 00:54:41;;;;;;;6.10;2.20;;;10.60;80.80;;;;;;5049860;28;20103;-68
2023/04/12 00:57:07;;;;;;;6.45;2.10;;;10.50;81.20;;;;;;5067739;28;20512;-68
2023/04/12 00:59:32;;;;;;;6.63;2.20;;;10.50;81.30;;;;;;5044051;28;20098;-67
2023/04/12 01:01:59;;;;;;;5.22;2.25;;;10.50;81.60;;;;;;5049877;28;20399;-69
2023/04/12 01:04:25;;;;;;;4.90;1.77;;;10.50;82.00;;;;;;5049659;28;20021;-67
2023/04/12 01:07:21;;;;;;;3.88;1.95;;;10.40;82.00;;;;;;5049342;28;20075;-67
2023/04/12 01:10:02;;;;;;;4.78;2.00;;;10.40;82.30;;;;;;5048580;28;20020;-67
2023/04/12 01:13:00;;;;;;;4.93;1.67;;;10.40;82.70;;;;;;5047160;28;20016;-66
2023/04/12 01:15:27;;;;;;;5.25;1.80;;;10.30;83.20;;;;;;5034164;28;20017;-67
2023/04/12 01:18:02;;;;;;;4.95;1.88;;;10.30;83.60;;;;;;5029351;28;20017;-68
2023/04/12 01:20:43;;;;;;;4.63;1.98;;;10.30;83.60;;;;;;5049406;28;20040;-66
2023/04/12 01:23:42;;;;;;;3.88;1.65;;;10.30;83.70;;;;;;5048995;28;20044;-66
2023/04/12 01:26:37;;;;;;;5.43;1.70;;;10.30;83.80;;;;;;5048774;28;20514;-66
2023/04/12 01:29:08;;;;;;;7.80;1.90;;;10.30;84.60;;;;;;5045717;28;20051;-66
2023/04/12 01:31:35;;;;;;;3.95;1.77;;;10.20;85.50;;;;;;5048161;28;20028;-66
2023/04/12 01:34:02;;;;;;;3.53;1.83;;;10.20;85.50;;;;;;5048424;28;20132;-68
2023/04/12 01:36:29;;;;;;;5.60;1.90;;;10.10;85.50;;;;;;5044554;28;20032;-65
2023/04/12 01:38:56;;;;;;;4.35;1.70;;;10.20;85.40;;;;;;5049042;28;20029;-67
2023/04/12 01:41:22;;;;;;;4.10;1.63;;;10.10;85.30;;;;;;5031386;28;20017;-66
2023/04/12 01:43:47;;;;;;;4.55;1.77;;;10.10;85.70;;;;;;5048727;28;20503;-66
2023/04/12 01:46:15;;;;;;;3.42;1.73;;;10.10;85.70;;;;;;5048319;28;20554;-66
2023/04/12 01:48:50;;;;;;;5.15;1.60;;;10.10;85.90;;;;;;5048772;28;20456;-65
2023/04/12 01:51:35;;;;;;;5.20;1.70;;;10.00;86.90;;;;;;5048519;28;20398;-67
2023/04/12 01:54:11;;;;;;;6.28;1.85;;;10.00;86.90;;;;;;5046914;28;20040;-65
2023/04/12 01:56:42;;;;;;;5.68;2.22;;;10.00;87.20;;;;;;5045422;28;20025;-67
2023/04/12 01:59:09;;;;;;;4.93;1.92;;;9.90;87.70;;;;;;5048360;28;20039;-66
2023/04/12 02:01:35;;;;;;;5.05;1.92;;;9.90;88.60;;;;;;5046425;28;20021;-66
2023/04/12 02:04:03;;;;;;;4.15;1.77;;;9.90;88.80;;;;;;5047974;28;20021;-67
2023/04/12 02:06:30;;;;;;;4.55;2.10;;;9.90;88.80;;;;;;5047533;28;20029;-65
2023/04/12 02:09:04;;;;;;;4.47;1.90;;;9.90;89.20;;;;;;5034404;28;20100;-66
2023/04/12 02:11:30;;;;;;;5.85;2.20;;;9.80;90.00;;;;;;5044781;28;20032;-67
2023/04/12 02:13:56;;;;;;;4.35;2.28;;;9.70;90.20;;;;;;5046159;28;20021;-67
2023/04/12 02:16:27;;;;;;;6.10;2.38;;;9.70;90.20;;;;;;5047979;28;20044;-65
2023/04/12 02:18:54;;;;;;;6.43;2.15;;;9.70;90.30;;;;;;5048145;28;20374;-65
2023/04/12 02:21:20;;;;;;;7.13;2.47;;;9.70;90.40;;;;;;5047926;28;20023;-65
2023/04/12 02:23:46;;;;;;;7.32;2.10;;;9.70;90.50;;;;;;5048212;28;20111;-65
2023/04/12 02:26:11;;;;;;;4.90;2.00;;;9.60;90.60;;;;;;5047580;28;20696;-66
2023/04/12 02:28:37;;;;;;;5.70;2.33;;;9.60;90.60;;;;;;5047236;28;20024;-66
2023/04/12 02:31:05;;;;;;;5.72;2.15;;;9.70;90.60;;;;;;5047151;28;20029;-66
2023/04/12 02:33:31;;;;;;;5.55;2.50;;;9.60;90.60;;;;;;5048334;28;20028;-67
2023/04/12 02:35:56;;;;;;;4.15;1.85;;;9.60;90.60;;;;;;5047413;28;20029;-68
2023/04/12 02:38:22;;;;;;;4.80;1.90;;;9.50;90.60;;;;;;5064227;28;20025;-66
2023/04/12 02:40:48;;;;;;;6.30;1.67;;;9.50;90.60;;;;;;5047706;28;20025;-67
2023/04/12 02:43:13;;;;;;;4.70;1.88;;;9.50;90.70;;;;;;5050955;28;20548;-66
2023/04/12 02:45:39;;;;;;;5.82;2.17;;;9.40;90.80;;;;;;5052086;28;20029;-67
2023/04/12 02:48:05;;;;;;;5.80;2.13;;;9.50;90.80;;;;;;5052113;28;20037;-66
2023/04/12 02:50:30;;;;;;;9.38;3.40;;;9.40;90.90;;;;;;5052349;28;20021;-66
2023/04/12 02:52:56;;;;;;;6.38;3.22;;;9.40;90.90;;;;;;5034770;28;20055;-67
2023/04/12 02:55:21;;;;;;;6.70;2.45;;;9.40;90.90;;;;;;5051766;28;20048;-68
2023/04/12 02:57:47;;;;;;;6.20;2.30;;;9.40;90.90;;;;;;5053116;28;20028;-65
2023/04/12 03:00:16;;;;;;;5.13;1.95;;;9.40;90.80;;;;;;5052051;28;20525;-66
2023/04/12 03:02:43;;;;;;;7.78;2.15;;;9.40;90.80;;;;;;5052045;28;20021;-70
2023/04/12 03:05:09;;;;;;;3.90;1.85;;;9.40;90.70;;;;;;5054525;28;20052;-66
2023/04/12 03:07:35;;;;;;;4.65;1.90;;;9.40;90.60;;;;;;5053389;28;20025;-67
2023/04/12 03:10:01;;;;;;;4.65;1.83;;;9.50;90.60;;;;;;5061330;28;20540;-66
2023/04/12 03:12:27;;;;;;;4.07;1.77;;;9.50;90.40;;;;;;5051888;28;20025;-66
2023/04/12 03:14:53;;;;;;;5.32;2.17;;;9.50;90.30;;;;;;5055040;28;20475;-67
2023/04/12 03:17:19;;;;;;;3.22;1.52;;;9.50;90.20;;;;;;5051708;28;20025;-65
2023/04/12 03:19:45;;;;;;;4.57;1.73;;;9.50;90.20;;;;;;5053189;28;20067;-67
2023/04/12 03:22:10;;;;;;;3.85;1.75;;;9.50;90.10;;;;;;5051626;28;20032;-67
2023/04/12 03:24:36;;;;;;;5.22;1.80;;;9.60;90.00;;;;;;5051957;28;20025;-66
2023/04/12 03:27:03;;;;;;;5.18;2.17;;;9.60;90.00;;;;;;5051271;28;20017;-65
2023/04/12 03:29:30;;;;;;;5.32;2.30;;;9.60;90.10;;;;;;5052415;28;20552;-66
2023/04/12 03:31:57;;;;;;;7.25;2.28;;;9.60;90.20;;;;;;5048764;28;20013;-65
2023/04/12 03:34:23;;;;;;;7.50;2.35;;;9.50;90.20;;;;;;5056827;28;20025;-65
2023/04/12 03:36:49;;;;;;;5.80;2.17;;;9.50;90.30;;;;;;5051263;28;20017;-67
2023/04/12 03:39:15;;;;;;;4.15;1.95;;;9.50;90.20;;;;;;5056521;28;20384;-64
2023/04/12 03:41:41;;;;;;;4.05;1.98;;;9.60;90.10;;;;;;5051176;28;20037;-66
2023/04/12 03:44:07;;;;;;;6.78;2.35;;;9.60;90.20;;;;;;5052954;28;20096;-66
2023/04/12 03:46:33;;;;;;;5.18;2.47;;;9.50;90.30;;;;;;5049249;28;20104;-66
2023/04/12 03:48:59;;;;;;;5.25;2.20;;;9.50;90.40;;;;;;5051417;28;20667;-64
2023/04/12 03:51:25;;;;;;;5.13;2.03;;;9.50;90.60;;;;;;5050237;28;20029;-65
2023/04/12 03:53:53;;;;;;;6.25;2.28;;;9.40;90.70;;;;;;5049975;28;20151;-66
2023/04/12 03:56:19;;;;;;;6.00;1.90;;;9.40;90.70;;;;;;5049708;28;20036;-66
2023/04/12 03:58:45;;;;;;;5.28;2.28;;;9.40;90.70;;;;;;5051048;28;20403;-65
2023/04/12 04:01:12;;;;;;;3.47;1.83;;;9.40;90.70;;;;;;5055083;28;20035;-66
2023/04/12 04:03:39;;;;;;;4.10;1.90;;;9.40;90.70;;;;;;5050616;28;20436;-65
2023/04/12 04:06:06;;;;;;;4.10;2.10;;;9.40;90.80;;;;;;5040363;28;20024;-66
2023/04/12 04:08:32;;;;;;;3.10;1.77;;;9.50;90.90;;;;;;5047368;28;20025;-65
2023/04/12 04:10:58;;;;;;;4.85;2.03;;;9.50;90.70;;;;;;5051909;28;20104;-66
2023/04/12 04:13:24;;;;;;;4.85;2.00;;;9.40;90.90;;;;;;5036116;28;20036;-66
2023/04/12 04:15:57;;;;;;;5.25;1.75;;;9.40;91.00;;;;;;5050686;28;20029;-68
2023/04/12 04:18:23;;;;;;;3.85;2.00;;;9.40;91.20;;;;;;5050614;28;20056;-66
2023/04/12 04:20:48;;;;;;;4.93;1.73;;;9.30;91.30;;;;;;5053923;28;20074;-65
2023/04/12 04:23:14;;;;;;;4.85;2.20;;;9.40;91.30;;;;;;5051837;28;20086;-66
2023/04/12 04:25:40;;;;;;;3.03;1.70;;;9.30;91.40;;;;;;5052076;28;20040;-68
2023/04/12 04:28:06;;;;;;;3.28;1.90;;;9.30;91.60;;;;;;5034707;28;20057;-67
2023/04/12 04:30:37;;;;;;;2.72;1.73;;;9.20;91.80;;;;;;5039134;28;20021;-67
2023/04/12 04:33:04;;;;;;;5.55;2.13;;;9.20;91.90;;;;;;5051735;28;20029;-66
2023/04/12 04:35:30;;;;;;;4.97;2.05;;;9.20;92.00;;;;;;5051147;28;20009;-65
2023/04/12 04:37:56;;;;;;;3.08;1.65;;;9.10;92.00;;;;;;5050756;28;20025;-66
2023/04/12 04:40:23;;;;;;;3.80;1.90;;;9.10;92.10;;;;;;5049727;28;20036;-65
2023/04/12 04:42:56;;;;;;;4.47;1.80;;;9.20;92.10;;;;;;5049862;28;20064;-66
2023/04/12 04:45:25;;;;;;;5.38;2.03;;;9.20;92.00;;;;;;5050516;28;20021;-65
2023/04/12 04:47:52;;;;;;;3.35;1.65;;;9.20;92.10;;;;;;5050328;28;20775;-66
2023/04/12 04:50:20;;;;;;;5.78;2.22;;;9.20;92.00;;;;;;5051787;28;20020;-66
2023/04/12 04:52:47;;;;;;;5.03;1.98;;;9.20;92.20;;;;;;5049623;28;20055;-65
2023/04/12 04:55:13;;;;;;;4.32;2.10;;;9.20;92.20;;;;;;5046630;28;20020;-65
2023/04/12 04:57:39;;;;;;;2.95;2.03;;;9.10;92.30;;;;;;5048955;28;20699;-67
2023/04/12 05:00:09;;;;;;;3.63;2.00;;;9.10;92.50;;;;;;5049940;28;20021;-66
2023/04/12 05:02:41;;;;;;;2.50;1.70;;;9.00;92.60;;;;;;5049167;28;20090;-66
2023/04/12 05:05:12;;;;;;;4.07;1.77;;;9.10;92.60;;;;;;5029855;28;20037;-67
2023/04/12 05:07:38;;;;;;;5.10;2.10;;;9.10;92.70;;;;;;5043888;28;20483;-65
2023/04/12 05:10:04;;;;;;;4.72;2.30;;;9.00;92.80;;;;;;5047383;28;20020;-67
2023/04/12 05:12:30;;;;;;;4.88;2.10;;;9.00;92.90;;;;;;5049983;28;20021;-67
2023/04/12 05:14:56;;;;;;;4.18;2.10;;;9.10;92.80;;;;;;5049306;28;20103;-66
2023/04/12 05:17:21;;;;;;;3.83;2.10;;;9.10;92.90;;;;;;5060050;28;20418;-67
2023/04/12 05:19:47;;;;;;;4.90;2.00;;;9.10;92.90;;;;;;5049018;28;20040;-66
2023/04/12 05:22:13;;;;;;;5.85;2.22;;;9.10;92.80;;;;;;5054685;28;20025;-64
2023/04/12 05:24:39;;;;;;;4.97;2.00;;;9.10;92.80;;;;;;5050496;28;20032;-66
2023/04/12 05:27:04;;;;;;;5.35;2.45;;;9.10;92.80;;;;;;5050479;28;20499;-67
2023/04/12 05:29:30;;;;;;;4.03;2.20;;;9.10;92.80;;;;;;5048571;28;20055;-66
2023/04/12 05:31:57;;;;;;;3.60;2.05;;;9.10;93.00;;;;;;5048691;28;20029;-65
2023/04/12 05:34:22;;;;;;;3.13;1.90;;;9.10;93.00;;;;;;5049034;28;20017;-67
2023/04/12 05:36:48;;;;;;;4.78;2.10;;;9.10;93.10;;;;;;5046916;28;20025;-66
2023/04/12 05:39:13;;;;;;;4.53;2.22;;;9.10;93.30;;;;;;5049153;28;20127;-66
2023/04/12 05:41:39;;;;;;;3.85;2.03;;;9.00;93.40;;;;;;5050552;28;20450;-65
2023/04/12 05:44:05;;;;;;;3.55;2.10;;;9.00;93.60;;;;;;5046768;28;20021;-67
2023/04/12 05:46:30;;;;;;;3.53;2.10;;;9.00;93.70;;;;;;5050856;28;20034;-66
2023/04/12 05:48:56;;;;;;;3.80;1.98;;;9.00;93.70;;;;;;5047676;28;20682;-69
2023/04/12 05:51:21;;;;;;;3.50;2.15;;;9.10;93.70;;;;;;5047900;28;20060;-66
2023/04/12 05:53:47;;;;;;;3.40;2.05;;;9.10;93.50;;;;;;5047902;28;20501;-66
2023/04/12 05:56:12;;;;;;;2.95;2.10;;;9.10;93.50;;;;;;5050375;28;20029;-63
2023/04/12 05:58:38;;;;;;;4.88;2.05;;;9.10;93.70;;;;;;5049314;28;20107;-64
2023/04/12 06:01:04;;;;;;;4.07;2.10;;;9.10;93.70;;;;;;5048371;28;20037;-64
2023/04/12 06:03:30;;;;;;;4.28;2.30;;;9.10;93.70;;;;;;5047731;28;20032;-65
2023/04/12 06:05:56;;;;;;;3.75;2.20;;;9.20;93.60;;;;;;5029710;28;20434;-66
2023/04/12 06:08:22;;;;;;;4.63;2.13;;;9.20;93.60;;;;;;5045023;28;20032;-66
2023/04/12 06:10:47;;;;;;;2.78;2.20;;;9.30;93.40;;;;;;5047784;28;20025;-65
2023/04/12 06:13:13;;;;;;;2.28;1.60;;;9.20;93.50;;;;;;5046887;28;20028;-64
2023/04/12 06:15:38;;;;;;;3.33;2.10;;;9.30;93.50;;;;;;5045415;28;20044;-66
2023/04/12 06:18:06;;;;;;;2.55;1.73;;;9.30;93.50;;;;;;5044976;28;20119;-65
2023/04/12 06:20:31;;;;;;;2.67;1.80;;;9.30;93.40;;;;;;5044340;28;20035;-66
2023/04/12 06:22:57;;;;;;;3.65;1.80;;;9.40;93.30;;;;;;5049012;28;20140;-65
2023/04/12 06:25:23;;;;;;;2.55;1.63;;;9.40;93.10;;;;;;5048995;28;20021;-65
2023/04/12 06:27:49;;;;;;;1.95;1.38;;;9.50;93.00;;;;;;5025922;28;20037;-65
2023/04/12 06:30:15;;;;;;;3.22;1.80;;;9.50;92.90;;;;;;5049795;28;20025;-67
2023/04/12 06:32:41;;;;;;;1.80;1.60;;;9.50;92.90;;;;;;5055740;28;20025;-67
2023/04/12 06:35:07;;;;;;;1.98;1.77;;;9.60;92.80;;;;;;5053747;28;20701;-65
2023/04/12 06:37:32;;;;;;;2.00;1.75;;;9.60;92.80;;;;;;5037928;28;20037;-65
2023/04/12 06:39:58;;;;;;;3.85;1.85;;;9.60;92.80;;;;;;5046587;28;20040;-64
2023/04/12 06:42:23;;;;;;;3.22;1.67;;;9.50;92.90;;;;;;5029669;28;20025;-65
2023/04/12 06:44:49;;;;;;;2.72;1.80;;;9.60;92.90;;;;;;5048617;28;20021;-64
2023/04/12 06:47:15;;;;;;;4.63;2.25;;;9.60;92.90;;;;;;5042020;28;20104;-65
2023/04/12 06:49:40;;;;;;;2.55;1.60;;;9.60;92.90;;;;;;5048152;28;20059;-65
2023/04/12 06:52:06;;;;;;;3.00;1.90;;;9.60;92.80;;;;;;5048613;28;20100;-66
2023/04/12 06:54:35;;;;;;;2.88;1.92;;;9.60;92.70;;;;;;5033170;28;20021;-67
2023/04/12 06:57:00;;;;;;;2.55;1.70;;;9.70;92.60;;;;;;5045908;28;20410;-68
2023/04/12 06:59:27;;;;;;;2.90;2.00;;;9.70;92.60;;;;;;5042521;28;20041;-65
2023/04/12 07:01:52;;;;;;;2.90;1.90;;;9.70;92.70;;;;;;5047296;28;20035;-67
2023/04/12 07:04:18;;;;;;;2.35;1.77;;;9.70;92.70;;;;;;5043809;28;20028;-69
2023/04/12 07:06:43;;;;;;;1.83;1.60;;;9.70;92.70;;;;;;5042197;28;20263;-67
2023/04/12 07:09:09;;;;;;;2.70;2.00;;;9.80;92.60;;;;;;5044851;28;20017;-68
2023/04/12 07:11:35;;;;;;;2.20;1.83;;;9.80;92.50;;;;;;5043251;28;20029;-67
2023/04/12 07:14:01;;;;;;;2.58;1.75;;;9.80;92.50;;;;;;5045185;28;20025;-67
2023/04/12 07:16:28;;;;;;;3.13;2.17;;;9.80;92.50;;;;;;5047036;28;20428;-67
2023/04/12 07:18:54;;;;;;;2.83;1.98;;;9.80;92.50;;;;;;5047720;28;20021;-69
2023/04/12 07:21:19;;;;;;;2.33;1.80;;;9.80;92.60;;;;;;5045492;28;20032;-66
2023/04/12 07:23:49;;;;;;;2.25;2.05;;;9.90;92.60;;;;;;5055353;28;20208;-66
2023/04/12 07:26:15;;;;;;;2.47;1.80;;;9.90;92.60;;;;;;5047155;28;20075;-66
2023/04/12 07:28:41;;;;;;;3.60;1.80;;;9.90;92.60;;;;;;5048935;28;20418;-66
2023/04/12 07:31:06;;;;;;;1.60;1.40;;;10.00;92.50;;;;;;5035121;28;20025;-67
2023/04/12 07:33:34;;;;;;;2.55;1.77;;;10.10;92.40;;;;;;5049500;28;20029;-69
2023/04/12 07:36:00;;;;;;;1.83;1.65;;;10.10;92.20;;;;;;5050302;28;20112;-66
2023/04/12 07:38:25;;;;;;;1.90;1.50;;;10.20;92.20;;;;;;5048290;28;20111;-65
2023/04/12 07:40:51;;;;;;;2.60;1.70;;;10.20;92.10;;;;;;5049288;28;20029;-67
2023/04/12 07:43:17;;;;;;;2.10;1.80;;;10.30;92.00;;;;;;5031494;28;20029;-66
2023/04/12 07:45:42;;;;;;;2.15;1.80;;;10.30;91.90;;;;;;5048765;28;20055;-68
2023/04/12 07:48:08;;;;;;;3.03;1.98;;;10.30;91.90;;;;;;5030530;28;20102;-66
2023/04/12 07:50:33;;;;;;;2.78;2.00;;;10.30;91.80;;;;;;5050814;28;20036;-65
2023/04/12 07:53:22;;;;;;;2.83;1.80;;;10.30;91.80;;;;;;5043127;28;20561;-65
2023/04/12 07:55:49;;;;;;;3.25;1.77;;;10.40;91.70;;;;;;5046368;28;20017;-65
2023/04/12 07:58:16;;;;;;;2.42;1.80;;;10.40;91.70;;;;;;5050288;28;20037;-65
2023/04/12 08:00:42;;;;;;;3.88;2.15;;;10.40;91.60;;;;;;5048169;28;20041;-66
2023/04/12 08:03:08;;;;;;;2.75;1.90;;;10.40;91.50;;;;;;5046858;28;20037;-66
2023/04/12 08:05:34;;;;;;;3.35;2.20;;;10.50;91.60;;;;;;5053163;28;20506;-67
2023/04/12 08:07:59;;;;;;;3.47;2.30;;;10.60;91.50;;;;;;5049107;28;20040;-65
2023/04/12 08:10:25;;;;;;;3.63;2.33;;;10.60;91.50;;;;;;5051337;28;20020;-67
2023/04/12 08:12:51;;;;;;;4.25;2.42;;;10.70;91.40;;;;;;5031505;28;20505;-65
2023/04/12 08:15:16;;;;;;;3.80;2.47;;;10.70;91.40;;;;;;5047265;28;20040;-66
2023/04/12 08:17:42;;;;;;;3.45;2.28;;;10.80;91.30;;;;;;5046895;28;20041;-65
2023/04/12 08:20:09;;;;;;;4.20;2.25;;;10.80;91.30;;;;;;5048183;28;20673;-66
2023/04/12 08:22:37;;;;;;;3.22;2.30;;;10.90;91.30;;;;;;5048775;28;20116;-67
2023/04/12 08:25:03;;;;;;;3.85;2.47;;;10.90;91.30;;;;;;5048675;28;20029;-66
2023/04/12 08:27:28;;;;;;;3.33;2.05;;;11.00;91.20;;;;;;5047560;28;20478;-66
2023/04/12 08:29:54;;;;;;;4.05;2.28;;;11.10;91.30;;;;;;5047344;28;20095;-66
2023/04/12 08:32:20;;;;;;;4.88;2.50;;;11.20;90.90;;;;;;5033807;28;20491;-66
2023/04/12 08:34:46;;;;;;;4.75;2.60;;;11.30;90.80;;;;;;5044720;28;20133;-68
2023/04/12 08:37:12;;;;;;;3.25;2.25;;;11.30;90.70;;;;;;5046447;28;20028;-65
2023/04/12 08:39:37;;;;;;;2.63;2.17;;;11.40;90.60;;;;;;5044844;28;20021;-69
2023/04/12 08:42:03;;;;;;;3.53;2.28;;;11.50;90.50;;;;;;5030740;28;20483;-66
2023/04/12 08:44:49;;;;;;;4.18;2.00;;;11.60;90.40;;;;;;5047298;28;20385;-65
2023/04/12 08:47:16;;;;;;;4.25;2.17;;;11.60;90.30;;;;;;5048669;28;20025;-66
2023/04/12 08:49:42;;;;;;;5.25;2.30;;;11.70;90.20;;;;;;5047843;28;20028;-65
2023/04/12 08:52:09;;;;;;;5.55;2.22;;;11.70;90.00;;;;;;5045809;28;20021;-65
2023/04/12 08:54:35;;;;;;;3.72;1.67;;;11.70;89.90;;;;;;5045918;28;20112;-68
2023/04/12 08:57:05;;;;;;;5.35;2.05;;;11.80;89.70;;;;;;5045169;28;20036;-68
2023/04/12 08:59:32;;;;;;;5.65;2.28;;;11.90;89.40;;;;;;5029914;28;20063;-66
2023/04/12 09:01:58;;;;;;;6.55;2.47;;;11.80;88.90;;;;;;5048307;28;20040;-67
2023/04/12 09:04:25;;;;;;;5.57;2.17;;;11.80;88.70;;;;;;5042104;28;20029;-66
2023/04/12 09:06:51;;;;;;;5.30;2.10;;;11.80;88.60;;;;;;5047539;28;20399;-68
2023/04/12 09:09:17;;;;;;;5.15;2.28;;;11.90;88.60;;;;;;5048846;28;20025;-68
2023/04/12 09:11:42;;;;;;;10.00;3.05;;;11.90;88.20;;;;;;5045575;28;20036;-66
2023/04/12 09:14:22;;;;;;;8.75;2.60;;;11.90;87.90;;;;;;5048066;28;20483;-68
2023/04/12 09:16:48;;;;;;;6.85;2.53;;;11.80;87.80;;;;;;5046338;28;20060;-66
2023/04/12 09:19:14;;;;;;;6.32;2.30;;;11.90;87.90;;;;;;5048790;28;20786;-67
2023/04/12 09:21:53;;;;;;;4.55;2.20;;;12.00;87.60;;;;;;5049483;28;20098;-66
2023/04/12 09:24:18;;;;;;;10.02;2.63;;;12.30;87.50;;;;;;5048504;28;20403;-66
2023/04/12 09:26:44;;;;;;;6.55;2.38;;;12.40;87.10;;;;;;5032093;28;20036;-68
2023/04/12 09:29:24;;;;;;;7.93;2.42;;;12.50;86.50;;;;;;5033341;28;20025;-69
2023/04/12 09:31:55;;;;;;;11.55;2.70;;;12.70;86.10;;;;;;5049166;28;20024;-67
2023/04/12 09:34:20;;;;;;;12.10;3.60;;;12.80;85.80;;;;;;5048362;28;20033;-67
2023/04/12 09:36:46;;;;;;;10.10;3.08;;;13.00;85.20;;;;;;5031710;28;20039;-67
2023/04/12 09:39:11;;;;;;;8.70;3.00;;;12.80;83.90;;;;;;5046786;28;20029;-66
2023/04/12 09:41:37;;;;;;;6.93;2.70;;;12.90;84.10;;;;;;5048890;28;20078;-68
2023/04/12 09:44:03;;;;;;;9.82;3.25;;;13.00;84.00;;;;;;5047941;28;20021;-65
2023/04/12 09:46:29;;;;;;;6.28;2.75;;;13.20;83.90;;;;;;5048272;28;20035;-68
2023/04/12 09:48:59;;;;;;;9.50;2.97;;;13.20;83.90;;;;;;5051105;28;20549;-68
2023/04/12 09:51:27;;;;;;;9.05;3.40;;;13.30;83.00;;;;;;5041731;28;20619;-67
2023/04/12 09:53:58;;;;;;;6.22;2.75;;;13.40;82.80;;;;;;5036325;28;20484;-69
2023/04/12 09:56:26;;;;;;;10.02;2.97;;;13.40;83.10;;;;;;5031823;28;20124;-66
2023/04/12 09:58:53;;;;;;;12.55;3.58;;;13.60;83.00;;;;;;5047646;28;20035;-67
2023/04/12 10:01:21;;;;;;;9.38;3.38;;;13.70;81.90;;;;;;5045588;28;20555;-70
2023/04/12 10:03:47;;;;;;;7.50;2.90;;;13.70;81.60;;;;;;5038466;28;20486;-69
2023/04/12 10:06:14;;;;;;;9.18;3.17;;;13.70;81.30;;;;;;5043004;28;20024;-67
2023/04/12 10:08:40;;;;;;;9.40;3.58;;;13.80;81.10;;;;;;5047530;28;20025;-66
2023/04/12 10:11:06;;;;;;;8.88;2.72;;;13.70;80.40;;;;;;5047331;28;20053;-66
2023/04/12 10:13:32;;;;;;;12.35;3.28;;;13.70;80.30;;;;;;5047045;28;20052;-68
2023/04/12 10:15:59;;;;;;;8.68;2.90;;;13.80;80.20;;;;;;5046515;28;20037;-67
2023/04/12 10:18:26;;;;;;;10.32;2.90;;;13.90;79.70;;;;;;5045671;28;20416;-68
2023/04/12 10:20:52;;;;;;;10.57;2.97;;;13.90;79.10;;;;;;5045395;28;20025;-67
2023/04/12 10:23:17;;;;;;;11.32;2.95;;;14.00;79.00;;;;;;5019996;28;20048;-70
2023/04/12 10:25:46;;;;;;;10.68;2.90;;;14.00;77.90;;;;;;5046880;28;20519;-67
2023/04/12 10:28:17;;;;;;;9.00;2.40;;;14.00;77.40;;;;;;5045924;28;20024;-67
2023/04/12 10:30:44;;;;;;;12.07;3.08;;;14.10;77.00;;;;;;5045677;28;20024;-70
2023/04/12 10:33:12;;;;;;;10.15;2.83;;;14.20;76.00;;;;;;5045103;28;20387;-66
2023/04/12 10:35:51;;;;;;;7.15;2.47;;;14.10;75.40;;;;;;5047417;28;20021;-67
2023/04/12 10:38:16;;;;;;;9.98;2.75;;;14.20;75.40;;;;;;5048023;28;20025;-68
2023/04/12 10:41:13;;;;;;;8.30;2.40;;;14.20;74.70;;;;;;5044671;28;20029;-67
2023/04/12 10:43:40;;;;;;;9.63;2.67;;;14.10;74.60;;;;;;5045112;28;20418;-66
2023/04/12 10:46:06;;;;;;;10.10;2.97;;;14.10;74.50;;;;;;5047554;28;20033;-66
2023/04/12 10:48:33;;;;;;;8.40;2.70;;;14.10;74.70;;;;;;5047402;28;20441;-66
2023/04/12 10:51:24;;;;;;;8.73;2.50;;;14.10;74.60;;;;;;5047347;28;20028;-65
2023/04/12 10:54:11;;;;;;;8.77;2.33;;;14.10;74.50;;;;;;5048161;28;20033;-67
2023/04/12 10:56:38;;;;;;;8.48;2.30;;;13.90;73.70;;;;;;5043043;28;20396;-68
2023/04/12 10:59:06;;;;;;;11.93;3.10;;;13.80;74.30;;;;;;5047679;28;20059;-66
2023/04/12 11:01:32;;;;;;;7.45;2.38;;;13.70;74.70;;;;;;5051131;28;20582;-66
2023/04/12 11:04:11;;;;;;;10.70;2.60;;;13.60;75.00;;;;;;5049900;28;20039;-65
2023/04/12 11:07:03;;;;;;;8.20;2.58;;;13.50;75.60;;;;;;5044680;28;20475;-66
2023/04/12 11:09:32;;;;;;;8.25;2.25;;;13.40;76.00;;;;;;5047718;28;20036;-66
2023/04/12 11:12:12;;;;;;;10.70;2.50;;;13.20;76.50;;;;;;5043912;28;20025;-66
2023/04/12 11:14:48;;;;;;;9.77;2.90;;;13.20;77.20;;;;;;5045269;28;20040;-66
2023/04/12 11:17:17;;;;;;;9.77;2.55;;;13.20;77.40;;;;;;5043859;28;20491;-66
2023/04/12 11:19:44;;;;;;;9.00;2.53;;;13.30;77.60;;;;;;5051215;28;20046;-68
2023/04/12 11:22:12;;;;;;;10.07;2.80;;;13.30;77.50;;;;;;5050297;28;20542;-67
2023/04/12 11:24:59;;;;;;;9.60;2.80;;;13.20;77.60;;;;;;5053014;28;20469;-66
2023/04/12 11:27:27;;;;;;;7.50;2.28;;;13.30;77.60;;;;;;5051492;28;20029;-66
2023/04/12 11:29:57;;;;;;;9.60;2.33;;;13.40;77.60;;;;;;5049862;28;20029;-67
2023/04/12 11:32:26;;;;;;;8.82;2.38;;;13.50;77.40;;;;;;5048997;28;20070;-67
2023/04/12 11:34:53;;;;;;;10.95;2.83;;;13.70;77.10;;;;;;5049442;28;20024;-68
2023/04/12 11:37:20;;;;;;;6.90;2.63;;;13.80;76.50;;;;;;5050714;28;20041;-68
2023/04/12 11:39:47;;;;;;;11.23;3.50;;;13.90;76.00;;;;;;5049553;28;20025;-69
2023/04/12 11:42:15;;;;;;;12.02;3.53;;;14.00;75.80;;;;;;5047638;28;20059;-65
2023/04/12 11:44:45;;;;;;;8.82;2.90;;;14.00;74.70;;;;;;5052738;28;20056;-67
2023/04/12 11:47:19;;;;;;;11.40;2.50;;;14.00;74.50;;;;;;5049876;28;20100;-66
2023/04/12 11:49:47;;;;;;;9.00;2.45;;;14.10;74.20;;;;;;5051140;28;20021;-66
2023/04/12 11:52:15;;;;;;;11.40;2.72;;;14.20;74.10;;;;;;5047694;28;20426;-66
2023/04/12 11:54:45;;;;;;;8.07;2.40;;;14.30;73.30;;;;;;5049442;28;20025;-67
2023/04/12 11:57:12;;;;;;;9.48;2.45;;;14.40;73.10;;;;;;5050365;28;20027;-67
2023/04/12 11:59:38;;;;;;;8.38;2.42;;;14.50;72.70;;;;;;5043445;28;20104;-67
2023/04/12 12:02:06;;;;;;;10.55;2.80;;;14.60;72.30;;;;;;5047161;28;20397;-66
2023/04/12 12:04:32;;;;;;;8.23;2.85;;;14.50;71.70;;;;;;5050596;28;20021;-66
2023/04/12 12:06:58;;;;;;;9.95;2.65;;;14.40;71.80;;;;;;5048472;28;20483;-66
2023/04/12 12:09:25;;;;;;;6.75;2.40;;;14.30;71.30;;;;;;5049173;28;20013;-67
2023/04/12 12:11:51;;;;;;;7.88;2.20;;;14.30;70.90;;;;;;5049031;28;20025;-67
2023/04/12 12:14:19;;;;;;;7.28;1.92;;;14.30;68.30;;;;;;5049187;28;20079;-68
2023/04/12 12:16:52;;;;;;;5.65;1.70;;;14.20;67.10;;;;;;5048975;28;20247;-66
2023/04/12 12:19:39;;;;;;;6.38;2.08;;;14.20;65.40;;;;;;5047817;28;20053;-66
2023/04/12 12:22:19;;;;;;;5.47;1.85;;;14.10;65.10;;;;;;5048095;28;20131;-67
2023/04/12 12:25:00;;;;;;;8.52;2.10;;;14.00;65.00;;;;;;5048371;28;20100;-67
2023/04/12 12:27:41;;;;;;;4.10;1.67;;;14.00;64.00;;;;;;5048307;28;20144;-66
2023/04/12 12:30:08;;;;;;;5.57;1.58;;;13.90;64.30;;;;;;5048543;28;20403;-68
2023/04/12 12:32:35;;;;;;;5.78;1.73;;;14.00;64.70;;;;;;5049918;28;20487;-68
2023/04/12 12:35:02;;;;;;;6.60;2.15;;;14.00;64.50;;;;;;5049212;28;20029;-66
2023/04/12 12:37:29;;;;;;;4.82;1.73;;;14.10;64.50;;;;;;5048878;28;20475;-69
2023/04/12 12:40:10;;;;;;;8.82;2.10;;;14.00;64.10;;;;;;5051194;28;20036;-67
2023/04/12 12:42:35;;;;;;;7.78;2.28;;;14.00;63.90;;;;;;5047130;28;20028;-66
2023/04/12 12:45:03;;;;;;;8.70;1.92;;;14.00;64.10;;;;;;5048442;28;20365;-67
2023/04/12 12:47:30;;;;;;;7.18;2.08;;;14.10;64.10;;;;;;5050528;28;20421;-69
2023/04/12 12:49:55;;;;;;;7.22;2.00;;;14.10;63.70;;;;;;5047009;28;20029;-66
2023/04/12 12:52:21;;;;;;;5.95;1.83;;;14.10;63.40;;;;;;5048755;28;20021;-67
2023/04/12 12:54:46;;;;;;;6.07;1.90;;;14.30;63.40;;;;;;5049248;28;20040;-69